createdAt,value
2019-03-17T00:01:57.688Z,2.17
2019-03-17T00:04:31.334Z,2.20
2019-03-17T00:06:54.599Z,1.80
2019-03-17T00:09:22.609Z,1.97
2019-03-17T00:11:49.963Z,2.37
2019-03-17T00:14:17.634Z,1.80
2019-03-17T00:16:44.982Z,2.07
2019-03-17T00:19:12.275Z,2.13
2019-03-17T00:21:39.844Z,2.00
2019-03-17T00:24:07.473Z,2.10
2019-03-17T00:26:35.167Z,2.07
2019-03-17T00:29:02.538Z,1.83
2019-03-17T00:31:29.830Z,2.00
2019-03-17T00:33:57.369Z,2.07
2019-03-17T00:36:24.645Z,2.23
2019-03-17T00:38:52.048Z,2.30
2019-03-17T00:41:19.351Z,3.10
2019-03-17T00:43:46.885Z,2.30
2019-03-17T00:46:14.449Z,1.87
2019-03-17T00:48:41.765Z,2.10
2019-03-17T00:51:09.160Z,2.20
2019-03-17T00:53:36.441Z,2.63
2019-03-17T00:56:03.759Z,2.67
2019-03-17T00:58:31.344Z,2.60
2019-03-17T01:00:58.962Z,2.43
2019-03-17T01:03:26.368Z,2.33
2019-03-17T01:05:53.648Z,2.70
2019-03-17T01:08:20.954Z,2.40
2019-03-17T01:10:48.291Z,2.83
2019-03-17T01:13:16.244Z,2.67
2019-03-17T01:15:43.797Z,3.03
2019-03-17T01:18:11.214Z,2.87
2019-03-17T01:20:38.782Z,2.40
2019-03-17T01:23:06.342Z,2.80
2019-03-17T01:25:33.624Z,2.20
2019-03-17T01:28:00.948Z,2.90
2019-03-17T01:30:28.231Z,3.60
2019-03-17T01:32:55.524Z,2.43
2019-03-17T01:35:23.051Z,2.57
2019-03-17T01:37:50.348Z,2.53
2019-03-17T01:40:17.636Z,3.10
2019-03-17T01:42:45.237Z,2.70
2019-03-17T01:45:12.514Z,2.47
2019-03-17T01:47:39.826Z,2.50
2019-03-17T01:50:07.803Z,2.90
2019-03-17T01:52:35.087Z,2.33
2019-03-17T01:55:02.579Z,2.40
2019-03-17T01:57:29.879Z,2.73
2019-03-17T01:59:57.409Z,2.60
2019-03-17T02:02:24.733Z,2.50
2019-03-17T02:04:52.022Z,2.40
2019-03-17T02:07:19.343Z,2.97
2019-03-17T02:09:46.764Z,2.47
2019-03-17T02:12:14.152Z,3.10
2019-03-17T02:14:41.477Z,4.00
2019-03-17T02:17:09.107Z,2.90
2019-03-17T02:19:36.407Z,2.90
2019-03-17T02:22:03.795Z,2.50
2019-03-17T02:24:31.442Z,2.63
2019-03-17T02:26:59.033Z,2.80
2019-03-17T02:29:26.589Z,3.23
2019-03-17T02:31:53.905Z,2.73
2019-03-17T02:34:21.208Z,2.70
2019-03-17T02:36:48.604Z,3.50
2019-03-17T02:39:16.193Z,2.83
2019-03-17T02:41:43.854Z,2.93
2019-03-17T02:44:11.251Z,3.03
2019-03-17T02:46:38.841Z,3.33
2019-03-17T02:49:06.261Z,3.60
2019-03-17T02:51:33.659Z,3.07
2019-03-17T02:54:01.244Z,3.37
2019-03-17T02:56:28.659Z,2.87
2019-03-17T02:58:56.034Z,3.37
2019-03-17T03:01:23.314Z,3.40
2019-03-17T03:03:50.982Z,3.23
2019-03-17T03:06:18.300Z,3.00
2019-03-17T03:08:45.987Z,2.97
2019-03-17T03:11:13.603Z,3.60
2019-03-17T03:13:41.215Z,3.07
2019-03-17T03:16:08.923Z,2.97
2019-03-17T03:18:36.312Z,3.10
2019-03-17T03:21:04.264Z,3.10
2019-03-17T03:23:31.595Z,3.07
2019-03-17T03:25:59.374Z,2.67
2019-03-17T03:28:26.996Z,2.87
2019-03-17T03:30:54.507Z,2.90
2019-03-17T03:33:22.162Z,2.80
2019-03-17T03:35:49.811Z,3.20
2019-03-17T03:38:17.492Z,3.40
2019-03-17T03:40:45.077Z,2.50
2019-03-17T03:43:12.406Z,3.00
2019-03-17T03:45:39.770Z,2.83
2019-03-17T03:48:07.504Z,3.50
2019-03-17T03:50:34.833Z,2.97
2019-03-17T03:53:02.509Z,3.77
2019-03-17T03:55:29.818Z,3.23
2019-03-17T03:57:57.138Z,3.43
2019-03-17T04:00:24.431Z,4.00
2019-03-17T04:02:51.801Z,4.40
2019-03-17T04:05:19.149Z,4.33
2019-03-17T04:07:46.533Z,6.70
2019-03-17T04:10:13.854Z,4.10
2019-03-17T04:12:41.259Z,3.90
2019-03-17T04:15:08.779Z,1.97
2019-03-17T04:17:36.083Z,2.03
2019-03-17T04:20:03.903Z,3.27
2019-03-17T04:22:31.287Z,2.53
2019-03-17T04:24:58.603Z,2.13
2019-03-17T04:27:26.519Z,1.97
2019-03-17T04:29:53.804Z,1.70
2019-03-17T04:32:21.138Z,1.60
2019-03-17T04:34:48.502Z,1.57
2019-03-17T04:37:15.728Z,1.47
2019-03-17T04:39:43.039Z,1.37
2019-03-17T04:42:10.459Z,1.23
2019-03-17T04:44:37.775Z,1.83
2019-03-17T04:47:05.460Z,1.40
2019-03-17T04:49:32.767Z,1.57
2019-03-17T04:52:00.173Z,2.00
2019-03-17T04:54:27.800Z,2.00
2019-03-17T04:56:55.467Z,1.83
2019-03-17T04:59:23.104Z,1.87
2019-03-17T05:01:50.755Z,2.13
2019-03-17T05:04:18.098Z,2.10
2019-03-17T05:06:52.575Z,2.30
2019-03-17T05:09:14.805Z,2.27
2019-03-17T05:11:42.114Z,2.30
2019-03-17T05:14:09.552Z,2.43
2019-03-17T05:16:36.843Z,1.90
2019-03-17T05:19:04.464Z,2.10
2019-03-17T05:21:32.039Z,2.30
2019-03-17T05:23:59.316Z,2.53
2019-03-17T05:26:26.607Z,2.10
2019-03-17T05:28:53.885Z,2.70
2019-03-17T05:31:21.434Z,2.53
2019-03-17T05:33:48.739Z,2.27
2019-03-17T05:36:16.283Z,2.97
2019-03-17T05:38:43.623Z,3.23
2019-03-17T05:41:11.160Z,2.43
2019-03-17T05:43:38.448Z,3.13
2019-03-17T05:46:06.050Z,2.60
2019-03-17T05:48:33.607Z,2.83
2019-03-17T05:51:00.944Z,2.23
2019-03-17T05:53:28.717Z,2.40
2019-03-17T05:55:56.386Z,3.20
2019-03-17T05:58:23.704Z,2.20
2019-03-17T06:00:50.980Z,2.20
2019-03-17T06:03:18.364Z,2.03
2019-03-17T06:05:46.022Z,1.53
2019-03-17T06:08:13.349Z,2.00
2019-03-17T06:10:41.010Z,2.83
2019-03-17T06:13:08.597Z,1.83
2019-03-17T06:15:36.427Z,2.23
2019-03-17T06:18:03.707Z,2.30
2019-03-17T06:20:31.045Z,2.10
2019-03-17T06:22:58.406Z,2.90
2019-03-17T06:25:25.971Z,2.53
2019-03-17T06:27:53.785Z,2.83
2019-03-17T06:30:21.152Z,3.03
2019-03-17T06:32:48.551Z,2.80
2019-03-17T06:35:15.852Z,3.27
2019-03-17T06:37:43.140Z,4.17
2019-03-17T06:40:11.119Z,2.33
2019-03-17T06:42:38.488Z,3.40
2019-03-17T06:45:06.313Z,3.50
2019-03-17T06:47:33.869Z,3.80
2019-03-17T06:50:01.272Z,3.50
2019-03-17T06:52:28.791Z,3.10
2019-03-17T06:54:56.129Z,3.10
2019-03-17T06:57:24.040Z,3.20
2019-03-17T06:59:51.363Z,3.70
2019-03-17T07:02:18.658Z,3.23
2019-03-17T07:04:46.321Z,3.37
2019-03-17T07:07:14.003Z,3.90
2019-03-17T07:09:41.292Z,3.43
2019-03-17T07:12:08.679Z,3.20
2019-03-17T07:14:36.500Z,2.67
2019-03-17T07:17:04.103Z,2.70
2019-03-17T07:19:31.787Z,2.73
2019-03-17T07:21:59.438Z,2.97
2019-03-17T07:24:27.041Z,2.60
2019-03-17T07:26:54.465Z,3.20
2019-03-17T07:29:21.881Z,2.97
2019-03-17T07:31:49.280Z,2.47
2019-03-17T07:34:17.260Z,2.60
2019-03-17T07:36:44.646Z,2.17
2019-03-17T07:39:12.515Z,2.17
2019-03-17T07:41:40.520Z,1.97
2019-03-17T07:44:07.825Z,1.73
2019-03-17T07:46:35.197Z,1.60
2019-03-17T07:49:02.542Z,1.50
2019-03-17T07:51:29.931Z,1.20
2019-03-17T07:53:57.323Z,1.47
2019-03-17T07:56:25.167Z,1.90
2019-03-17T07:58:52.743Z,1.17
2019-03-17T08:01:20.177Z,1.47
2019-03-17T08:03:47.685Z,1.43
2019-03-17T08:06:15.100Z,1.30
2019-03-17T08:08:42.711Z,1.90
2019-03-17T08:11:10.352Z,1.40
2019-03-17T08:13:37.661Z,1.47
2019-03-17T08:16:04.959Z,1.97
2019-03-17T08:18:32.360Z,1.37
2019-03-17T08:20:59.814Z,1.80
2019-03-17T08:23:27.104Z,1.70
2019-03-17T08:25:54.553Z,1.30
2019-03-17T08:28:22.398Z,1.83
2019-03-17T08:30:53.331Z,2.20
2019-03-17T08:33:18.980Z,1.63
2019-03-17T08:35:46.295Z,1.97
2019-03-17T08:38:21.736Z,2.27
2019-03-17T08:40:43.122Z,1.90
2019-03-17T08:43:10.438Z,1.63
2019-03-17T08:45:37.851Z,2.20
2019-03-17T08:48:05.147Z,1.97
2019-03-17T08:50:32.569Z,1.57
2019-03-17T08:53:00.376Z,2.37
2019-03-17T08:55:27.934Z,1.77
2019-03-17T08:57:55.526Z,1.50
2019-03-17T09:00:23.063Z,1.90
2019-03-17T09:02:50.372Z,2.13
2019-03-17T09:05:18.025Z,1.97
2019-03-17T09:07:45.315Z,2.30
2019-03-17T09:10:13.039Z,1.97
2019-03-17T09:12:40.276Z,1.93
2019-03-17T09:15:08.061Z,2.30
2019-03-17T09:17:35.840Z,2.20
2019-03-17T09:20:03.846Z,1.37
2019-03-17T09:22:31.130Z,2.00
2019-03-17T09:24:58.450Z,1.70
2019-03-17T09:27:26.140Z,1.67
2019-03-17T09:29:53.954Z,2.30
2019-03-17T09:32:21.576Z,2.17
2019-03-17T09:34:49.131Z,2.20
2019-03-17T09:37:16.444Z,1.93
2019-03-17T09:39:43.851Z,1.83
2019-03-17T09:42:11.672Z,2.40
2019-03-17T09:44:39.058Z,2.00
2019-03-17T09:47:06.928Z,1.37
2019-03-17T09:49:34.645Z,1.50
2019-03-17T09:52:01.940Z,1.33
2019-03-17T09:54:29.347Z,1.30
2019-03-17T09:56:57.042Z,1.07
2019-03-17T09:59:24.452Z,1.40
2019-03-17T10:01:52.128Z,1.10
2019-03-17T10:04:19.408Z,1.73
2019-03-17T10:06:46.748Z,0.90
2019-03-17T10:09:14.405Z,1.00
2019-03-17T10:11:41.714Z,1.30
2019-03-17T10:14:09.068Z,1.00
2019-03-17T10:16:36.690Z,0.50
2019-03-17T10:19:04.100Z,0.77
2019-03-17T10:21:31.412Z,0.60
2019-03-17T10:23:58.829Z,0.77
2019-03-17T10:26:26.510Z,0.80
2019-03-17T10:28:54.634Z,0.83
2019-03-17T10:31:21.950Z,1.23
2019-03-17T10:33:49.510Z,1.40
2019-03-17T10:36:16.795Z,1.50
2019-03-17T10:38:44.376Z,1.93
2019-03-17T10:41:11.948Z,2.47
2019-03-17T10:43:39.242Z,1.97
2019-03-17T10:46:06.591Z,1.50
2019-03-17T10:48:33.920Z,1.10
2019-03-17T10:51:01.613Z,1.43
2019-03-17T10:53:28.917Z,1.60
2019-03-17T10:55:56.534Z,1.37
2019-03-17T10:58:24.098Z,1.87
2019-03-17T11:00:51.436Z,1.13
2019-03-17T11:03:19.019Z,0.90
2019-03-17T11:05:46.429Z,1.10
2019-03-17T11:08:14.113Z,1.50
2019-03-17T11:10:41.503Z,1.17
2019-03-17T11:13:08.908Z,0.80
2019-03-17T11:15:36.227Z,0.50
2019-03-17T11:18:03.532Z,0.63
2019-03-17T11:20:31.206Z,0.40
2019-03-17T11:22:58.611Z,0.63
2019-03-17T11:25:26.418Z,0.70
2019-03-17T11:27:53.732Z,0.53
2019-03-17T11:30:21.406Z,0.77
2019-03-17T11:32:49.132Z,0.60
2019-03-17T11:35:16.735Z,0.77
2019-03-17T11:37:44.057Z,0.60
2019-03-17T11:40:12.712Z,0.70
2019-03-17T11:42:40.043Z,0.77
2019-03-17T11:45:09.353Z,1.03
2019-03-17T11:47:37.239Z,0.80
2019-03-17T11:50:07.106Z,0.73
2019-03-17T11:52:34.395Z,0.93
2019-03-17T11:55:02.037Z,0.80
2019-03-17T11:57:29.946Z,1.00
2019-03-17T11:59:57.248Z,1.53
2019-03-17T12:02:26.734Z,1.10
2019-03-17T12:04:54.098Z,0.80
2019-03-17T12:07:21.409Z,0.90
2019-03-17T12:09:50.460Z,1.00
2019-03-17T12:12:17.900Z,1.13
2019-03-17T12:14:45.505Z,0.83
2019-03-17T12:17:12.911Z,1.07
2019-03-17T12:19:40.282Z,1.10
2019-03-17T12:22:09.435Z,1.37
2019-03-17T12:24:36.952Z,0.97
2019-03-17T12:27:04.641Z,0.90
2019-03-17T12:29:31.952Z,0.90
2019-03-17T12:32:01.835Z,1.00
2019-03-17T12:34:29.703Z,1.03
2019-03-17T12:36:57.349Z,1.17
2019-03-17T12:39:24.679Z,1.30
2019-03-17T12:41:52.261Z,0.80
2019-03-17T12:44:19.698Z,1.00
2019-03-17T12:46:47.025Z,1.00
2019-03-17T12:49:14.437Z,1.07
2019-03-17T12:51:41.806Z,1.30
2019-03-17T12:54:09.189Z,1.07
2019-03-17T12:56:36.526Z,1.00
2019-03-17T12:59:04.142Z,1.27
2019-03-17T13:01:31.451Z,1.17
2019-03-17T13:03:58.774Z,1.10
2019-03-17T13:06:26.409Z,1.00
2019-03-17T13:08:53.794Z,1.30
2019-03-17T13:11:21.142Z,1.10
2019-03-17T13:13:48.473Z,1.50
2019-03-17T13:16:15.800Z,1.33
2019-03-17T13:18:43.123Z,1.10
2019-03-17T13:21:10.460Z,0.93
2019-03-17T13:23:37.891Z,1.10
2019-03-17T13:26:05.275Z,1.10
2019-03-17T13:28:32.961Z,1.27
2019-03-17T13:31:00.380Z,0.90
2019-03-17T13:33:28.001Z,1.30
2019-03-17T13:35:55.442Z,0.97
2019-03-17T13:38:23.094Z,1.00
2019-03-17T13:40:50.417Z,1.03
2019-03-17T13:43:17.806Z,1.00
2019-03-17T13:45:45.518Z,0.90
2019-03-17T13:48:13.170Z,1.20
2019-03-17T13:50:40.579Z,0.87
2019-03-17T13:53:08.353Z,0.83
2019-03-17T13:55:35.690Z,0.93
2019-03-17T13:58:03.349Z,0.80
2019-03-17T14:00:30.753Z,0.60
2019-03-17T14:02:58.517Z,0.70
2019-03-17T14:05:25.950Z,0.70
2019-03-17T14:07:53.360Z,0.40
2019-03-17T14:10:20.737Z,0.83
2019-03-17T14:12:48.449Z,0.73
2019-03-17T14:15:16.034Z,0.70
2019-03-17T14:17:43.443Z,0.70
2019-03-17T14:20:12.761Z,0.63
2019-03-17T14:22:42.133Z,0.70
2019-03-17T14:25:12.857Z,0.77
2019-03-17T14:27:40.514Z,0.73
2019-03-17T14:30:10.211Z,0.70
2019-03-17T14:32:39.050Z,0.77
2019-03-17T14:35:06.467Z,0.43
2019-03-17T14:37:33.806Z,0.63
2019-03-17T14:40:01.213Z,0.70
2019-03-17T14:42:28.651Z,0.90
2019-03-17T14:44:55.973Z,0.80
2019-03-17T14:47:23.398Z,0.60
2019-03-17T14:49:50.995Z,0.60
2019-03-17T14:52:18.716Z,0.87
2019-03-17T14:54:46.071Z,0.77
2019-03-17T14:57:13.653Z,0.67
2019-03-17T14:59:41.324Z,0.50
2019-03-17T15:02:09.063Z,0.70
2019-03-17T15:04:36.683Z,0.80
2019-03-17T15:07:04.106Z,0.87
2019-03-17T15:09:31.777Z,0.83
2019-03-17T15:11:59.072Z,0.77
2019-03-17T15:14:26.384Z,0.90
2019-03-17T15:16:53.808Z,0.50
2019-03-17T15:19:21.264Z,0.90
2019-03-17T15:21:48.990Z,0.63
2019-03-17T15:24:16.417Z,0.43
2019-03-17T15:26:44.621Z,0.80
2019-03-17T15:29:12.031Z,0.97
2019-03-17T15:31:39.341Z,1.10
2019-03-17T15:34:07.041Z,2.10
2019-03-17T15:36:34.656Z,0.90
2019-03-17T15:39:03.960Z,0.90
2019-03-17T15:41:31.287Z,0.83
2019-03-17T15:43:59.164Z,0.70
2019-03-17T15:46:26.790Z,0.53
2019-03-17T15:48:54.215Z,0.80
2019-03-17T15:51:21.644Z,0.60
2019-03-17T15:53:49.245Z,0.60
2019-03-17T15:56:16.654Z,0.40
2019-03-17T15:58:43.971Z,0.40
2019-03-17T16:01:11.417Z,0.37
2019-03-17T16:03:38.734Z,0.50
2019-03-17T16:06:06.119Z,0.30
2019-03-17T16:08:33.447Z,0.30
2019-03-17T16:11:01.320Z,0.40
2019-03-17T16:13:28.633Z,0.60
2019-03-17T16:15:56.054Z,0.53
2019-03-17T16:18:23.455Z,0.50
2019-03-17T16:20:50.805Z,0.50
2019-03-17T16:23:18.207Z,0.40
2019-03-17T16:25:45.562Z,0.67
2019-03-17T16:28:13.013Z,0.50
2019-03-17T16:30:40.435Z,0.57
2019-03-17T16:33:07.849Z,0.50
2019-03-17T16:35:35.478Z,0.83
2019-03-17T16:38:03.653Z,0.90
2019-03-17T16:40:31.261Z,0.47
2019-03-17T16:43:01.524Z,0.40
2019-03-17T16:45:29.280Z,0.60
2019-03-17T16:47:56.902Z,0.50
2019-03-17T16:50:25.049Z,0.50
2019-03-17T16:52:52.881Z,0.70
2019-03-17T16:55:20.499Z,0.90
2019-03-17T16:57:47.914Z,0.83
2019-03-17T17:00:18.851Z,0.50
2019-03-17T17:02:45.601Z,0.47
2019-03-17T17:05:13.208Z,0.63
2019-03-17T17:07:40.521Z,0.70
2019-03-17T17:10:09.342Z,1.00
2019-03-17T17:12:37.235Z,0.70
2019-03-17T17:15:07.314Z,1.00
2019-03-17T17:17:34.729Z,1.17
2019-03-17T17:20:02.413Z,1.00
2019-03-17T17:22:29.866Z,0.93
2019-03-17T17:24:57.295Z,0.97
2019-03-17T17:27:24.933Z,0.87
2019-03-17T17:29:52.441Z,0.97
2019-03-17T17:32:20.143Z,1.20
2019-03-17T17:34:47.690Z,1.03
2019-03-17T17:37:15.253Z,1.20
2019-03-17T17:39:42.610Z,0.87
2019-03-17T17:42:10.423Z,1.20
2019-03-17T17:44:37.932Z,1.10
2019-03-17T17:47:05.285Z,1.10
2019-03-17T17:49:32.729Z,1.13
2019-03-17T17:52:00.193Z,0.80
2019-03-17T17:54:27.929Z,0.63
2019-03-17T17:56:55.217Z,1.00
2019-03-17T17:59:22.656Z,0.80
2019-03-17T18:01:50.128Z,1.10
2019-03-17T18:04:17.527Z,1.10
2019-03-17T18:06:44.912Z,1.40
2019-03-17T18:09:13.115Z,1.33
2019-03-17T18:11:40.512Z,1.47
2019-03-17T18:14:07.928Z,1.53
2019-03-17T18:16:35.517Z,1.60
2019-03-17T18:19:02.945Z,1.20
2019-03-17T18:21:30.366Z,1.80
2019-03-17T18:23:57.801Z,1.77
2019-03-17T18:26:25.464Z,1.50
2019-03-17T18:28:52.767Z,1.50
2019-03-17T18:31:20.070Z,1.33
2019-03-17T18:33:47.362Z,1.20
2019-03-17T18:36:14.799Z,1.40
2019-03-17T18:38:42.216Z,1.57
2019-03-17T18:41:09.737Z,1.40
2019-03-17T18:43:37.075Z,1.40
2019-03-17T18:46:04.622Z,1.73
2019-03-17T18:48:32.079Z,1.70
2019-03-17T18:50:59.500Z,1.77
2019-03-17T18:53:26.787Z,2.20
2019-03-17T18:55:54.197Z,2.20
2019-03-17T18:58:21.622Z,1.77
2019-03-17T19:00:49.068Z,1.50
2019-03-17T19:03:16.472Z,1.57
2019-03-17T19:05:43.824Z,1.60
2019-03-17T19:08:11.239Z,1.80
2019-03-17T19:10:38.533Z,1.90
2019-03-17T19:13:06.104Z,2.40
2019-03-17T19:15:33.688Z,2.00
2019-03-17T19:18:01.029Z,2.60
2019-03-17T19:20:28.721Z,2.83
2019-03-17T19:22:56.114Z,2.10
2019-03-17T19:25:24.286Z,2.00
2019-03-17T19:27:51.662Z,1.97
2019-03-17T19:30:19.690Z,2.23
2019-03-17T19:32:47.161Z,1.40
2019-03-17T19:35:14.581Z,2.20
2019-03-17T19:37:41.868Z,0.80
2019-03-17T19:40:10.704Z,0.80
2019-03-17T19:42:38.410Z,0.60
2019-03-17T19:45:05.785Z,0.50
2019-03-17T19:47:33.271Z,0.70
2019-03-17T19:50:00.599Z,0.83
2019-03-17T19:52:27.913Z,0.97
2019-03-17T19:54:55.584Z,0.50
2019-03-17T19:57:23.612Z,0.50
2019-03-17T19:59:51.039Z,0.60
2019-03-17T20:02:18.540Z,0.60
2019-03-17T20:04:45.817Z,0.70
2019-03-17T20:07:13.196Z,0.93
2019-03-17T20:09:40.559Z,1.00
2019-03-17T20:12:07.859Z,0.50
2019-03-17T20:14:35.432Z,0.60
2019-03-17T20:17:03.118Z,0.57
2019-03-17T20:19:30.556Z,0.70
2019-03-17T20:21:57.946Z,0.60
2019-03-17T20:24:25.476Z,0.50
2019-03-17T20:26:52.896Z,0.77
2019-03-17T20:29:20.589Z,0.50
2019-03-17T20:31:48.021Z,0.73
2019-03-17T20:34:15.647Z,0.50
2019-03-17T20:36:42.986Z,1.00
2019-03-17T20:39:11.148Z,0.80
2019-03-17T20:41:39.035Z,0.90
2019-03-17T20:44:06.470Z,0.60
2019-03-17T20:46:33.775Z,1.00
2019-03-17T20:49:01.171Z,1.50
2019-03-17T20:51:28.746Z,1.47
2019-03-17T20:53:58.240Z,1.43
2019-03-17T20:56:25.579Z,1.73
2019-03-17T20:58:52.960Z,2.07
2019-03-17T21:01:20.266Z,2.10
2019-03-17T21:03:47.950Z,2.17
2019-03-17T21:06:15.263Z,1.83
2019-03-17T21:08:42.818Z,1.97
2019-03-17T21:11:10.219Z,1.93
2019-03-17T21:13:46.263Z,2.10
2019-03-17T21:16:07.005Z,1.77
2019-03-17T21:18:34.475Z,1.90
2019-03-17T21:21:01.970Z,1.60
2019-03-17T21:23:29.635Z,1.20
2019-03-17T21:25:57.311Z,1.50
2019-03-17T21:28:27.435Z,1.67
2019-03-17T21:30:53.832Z,1.77
2019-03-17T21:33:21.409Z,2.47
2019-03-17T21:35:48.877Z,2.40
2019-03-17T21:38:16.559Z,2.60
2019-03-17T21:41:05.626Z,2.40
2019-03-17T21:43:13.561Z,2.07
2019-03-17T21:45:41.014Z,2.20
2019-03-17T21:48:08.432Z,2.60
2019-03-17T21:50:35.767Z,3.40
2019-03-17T21:53:03.327Z,2.10
2019-03-17T21:55:30.747Z,2.10
2019-03-17T21:57:58.117Z,2.27
2019-03-17T22:00:25.716Z,1.50
2019-03-17T22:02:54.929Z,1.40
2019-03-17T22:05:22.254Z,1.90
2019-03-17T22:07:51.206Z,1.57
2019-03-17T22:10:19.107Z,1.70
2019-03-17T22:12:46.428Z,1.73
2019-03-17T22:15:14.035Z,1.77
2019-03-17T22:17:41.544Z,1.80
2019-03-17T22:20:09.893Z,1.90
2019-03-17T22:22:37.319Z,1.80
2019-03-17T22:25:04.784Z,1.70
2019-03-17T22:27:32.056Z,1.93
2019-03-17T22:29:59.480Z,2.10
2019-03-17T22:32:26.886Z,2.20
2019-03-17T22:34:54.203Z,2.40
2019-03-17T22:37:21.515Z,2.73
2019-03-17T22:39:48.808Z,3.40
2019-03-17T22:42:16.131Z,3.30
2019-03-17T22:44:43.980Z,3.30
2019-03-17T22:47:11.375Z,3.57
2019-03-17T22:49:38.772Z,3.67
2019-03-17T22:52:06.084Z,3.97
2019-03-17T22:54:33.779Z,3.47
2019-03-17T22:57:01.468Z,3.47
2019-03-17T22:59:28.776Z,3.63
2019-03-17T23:01:56.062Z,3.80
2019-03-17T23:04:24.032Z,3.70
2019-03-17T23:06:51.345Z,3.73
2019-03-17T23:09:19.190Z,3.97
2019-03-17T23:11:46.522Z,2.83
2019-03-17T23:14:13.834Z,3.30
2019-03-17T23:16:41.041Z,2.77
2019-03-17T23:19:08.717Z,2.57
2019-03-17T23:21:36.200Z,3.20
2019-03-17T23:24:03.761Z,2.83
2019-03-17T23:26:31.192Z,3.00
2019-03-17T23:28:58.539Z,3.20
2019-03-17T23:31:25.856Z,2.80
2019-03-17T23:33:53.537Z,3.20
2019-03-17T23:36:21.139Z,3.90
2019-03-17T23:38:48.611Z,3.53
2019-03-17T23:41:15.927Z,3.03
2019-03-17T23:43:43.236Z,3.20
2019-03-17T23:46:10.745Z,3.73
2019-03-17T23:48:38.312Z,3.40
2019-03-17T23:51:05.891Z,3.30
2019-03-17T23:53:33.180Z,3.00
2019-03-17T23:56:01.142Z,3.23
2019-03-17T23:58:28.542Z,2.83
